Latest Weather Observations for Kalumburu

IDW60801

Issued at 9:33 pm WST Tuesday 6 December 2016 (issued every 30 minutes, with the page automatically refreshed every 10 minutes)

About weather observations | Map of weather stations | Latest weather observations for WA | Other Formats
Station Details ID: 001019 Name: KALUMBURU Lat: -14.30 Lon: 126.65 Height: 23.0 m
Data from the previous 72 hours. | See also: Recent months at Kalumburu
Date/Time
WST
Temp
°C
App
Temp
°C
Dew
Point
°C
Rel
Hum
%
Delta-T
°C
Wind Press
QNH
hPa
Press
MSL
hPa
Rain since
9am
mm
Dir  Spd
km/h
Gust
km/h
Spd
kts
Gust
kts
06/09:30pm 29.2 33.0 22.4 66 4.6 SSW 6 9 3 5 1009.8 1009.6 0.0
06/09:00pm 29.5 33.2 22.2 65 4.9 S 6 9 3 5 1009.7 1009.5 0.0
06/08:30pm 30.5 33.9 22.7 63 5.3 WNW 9 15 5 8 1009.5 1009.3 0.0
06/08:00pm 30.4 34.0 22.3 62 5.5 NW 7 11 4 6 1009.2 1009.0 0.0
06/07:30pm 30.8 34.1 21.9 59 6.0 NW 7 15 4 8 1009.2 1009.0 0.0
06/07:00pm 31.0 33.4 21.5 57 6.4 WNW 11 17 6 9 1008.9 1008.7 0.0
06/06:30pm 31.3 32.7 20.3 52 7.3 NW 13 20 7 11 1008.2 1008.0 0.0
06/06:00pm 31.6 33.5 20.5 51 7.4 NW 11 19 6 10 1007.6 1007.4 0.0
06/05:30pm 31.9 33.7 21.1 52 7.3 NNW 13 20 7 11 1007.0 1006.8 0.0
06/05:00pm 31.8 33.3 21.3 53 7.1 N 15 22 8 12 1006.5 1006.3 0.0
06/04:30pm 32.1 33.7 20.7 51 7.6 NNW 13 20 7 11 1006.2 1006.0 0.0
06/04:00pm 32.4 33.8 21.0 51 7.7 N 15 20 8 11 1005.9 1005.7 0.0
06/03:30pm 32.7 34.2 20.6 49 8.1 NNE 13 20 7 11 1005.8 1005.6 0.0
06/03:00pm 33.4 34.9 21.2 48 8.3 ESE 15 20 8 11 1006.1 1005.9 0.0
06/02:30pm 34.9 35.4 20.1 42 9.9 NNW 17 24 9 13 1005.9 1005.7 0.0
06/02:00pm 35.1 35.9 20.6 42 9.8 NNW 17 26 9 14 1006.1 1005.9 0.0
06/01:30pm 34.7 35.5 20.6 43 9.5 NNW 17 26 9 14 1006.5 1006.3 0.0
06/01:00pm 35.3 35.8 20.8 42 9.8 N 19 28 10 15 1006.7 1006.5 0.0
06/12:30pm 35.4 36.9 22.0 45 9.2 N 17 28 9 15 1007.2 1007.0 0.0
06/12:00pm 36.0 37.9 21.4 42 10.0 N 13 20 7 11 1007.7 1007.5 0.0
06/11:30am 36.0 37.5 19.0 36 11.2 NNW 9 15 5 8 1008.0 1007.8 0.0
06/11:00am 35.4 39.0 22.0 45 9.2 NE 6 9 3 5 1008.5 1008.3 0.0
06/10:30am 34.8 37.7 21.1 44 9.3 E 7 11 4 6 1009.0 1008.8 0.0
06/10:00am 34.3 37.6 21.4 47 8.8 SE 6 11 3 6 1009.7 1009.5 0.0
06/09:30am 33.5 36.7 20.6 46 8.6 ENE 4 9 2 5 1010.1 1009.9 0.0
06/09:00am 33.2 36.6 22.0 51 7.6 WNW 7 13 4 7 1010.4 1010.2 0.0
06/08:30am 32.8 38.0 22.9 56 6.8 CALM 0 0 0 0 1010.6 1010.4 0.0
06/08:00am 32.1 36.3 22.5 57 6.6 S 4 7 2 4 1010.4 1010.2 0.0
06/07:30am 30.8 36.1 23.7 66 4.9 S 2 7 1 4 1010.4 1010.2 0.0
06/07:00am 30.0 34.4 23.4 67 4.6 SE 6 7 3 4 1010.3 1010.1 0.0
06/06:30am 29.7 35.6 24.1 72 3.9 CALM 0 0 0 0 1010.0 1009.8 0.0
06/06:00am 27.7 33.7 24.3 82 2.4 CALM 0 0 0 0 1009.9 1009.7 0.0
06/05:30am 25.8 31.6 24.0 90 1.2 CALM 0 0 0 0 1009.7 1009.5 0.0
06/05:00am 25.2 30.6 23.3 89 1.3 CALM 0 0 0 0 1009.4 1009.2 0.0
06/04:30am 25.2 30.6 23.3 89 1.3 CALM 0 0 0 0 1009.1 1008.9 0.0
06/04:00am 25.1 30.4 23.0 88 1.4 CALM 0 0 0 0 1008.8 1008.6 0.0
06/03:30am 25.3 30.7 23.2 88 1.4 CALM 0 0 0 0 1008.4 1008.2 0.0
06/03:00am 25.3 30.7 23.2 88 1.4 CALM 0 0 0 0 1008.3 1008.1 0.0
06/02:30am 25.3 30.7 23.2 88 1.4 CALM 0 0 0 0 1008.3 1008.1 0.0
06/02:00am 25.5 31.0 23.4 88 1.4 CALM 0 0 0 0 1008.2 1008.0 0.0
06/01:30am 25.4 30.8 23.3 88 1.4 CALM 0 0 0 0 1008.3 1008.1 0.0
06/01:00am 25.2 30.4 22.9 87 1.6 CALM 0 0 0 0 1008.6 1008.4 0.0
06/12:30am 25.2 30.2 22.5 85 1.8 CALM 0 0 0 0 1008.7 1008.5 0.0
06/12:00am 25.5 30.8 23.0 86 1.7 CALM 0 0 0 0 1008.9 1008.7 0.0
 
Date/Time
WST
Temp
°C
App
Temp
°C
Dew
Point
°C
Rel
Hum
%
Delta-T
°C
Wind Press
QNH
hPa
Press
MSL
hPa
Rain since
9am
mm
Dir  Spd
km/h
Gust
km/h
Spd
kts
Gust
kts
05/11:30pm 25.5 30.7 22.8 85 1.8 CALM 0 0 0 0 1009.1 1008.9 0.0
05/11:00pm 25.7 30.8 22.6 83 2.1 CALM 0 0 0 0 1009.3 1009.1 0.0
05/10:30pm 25.9 30.7 22.2 80 2.5 CALM 0 0 0 0 1009.6 1009.4 0.0
05/10:00pm 25.9 30.8 22.4 81 2.4 CALM 0 0 0 0 1010.0 1009.8 0.0
05/09:30pm 26.3 31.2 22.4 79 2.6 CALM 0 0 0 0 1010.1 1009.9 0.0
05/09:00pm 27.0 30.9 21.1 70 3.9 NNW 2 6 1 3 1009.9 1009.7 0.0
05/08:30pm 27.3 31.6 21.1 69 4.1 CALM 0 0 0 0 1009.8 1009.6 0.0
05/08:00pm 28.0 32.1 20.8 65 4.8 CALM 0 6 0 3 1009.5 1009.3 0.0
05/07:30pm 28.9 32.1 20.6 61 5.5 NNW 4 7 2 4 1009.3 1009.1 0.0
05/07:00pm 29.8 32.4 21.2 60 5.8 NNW 9 13 5 7 1008.8 1008.6 0.0
05/06:30pm 30.3 32.5 20.5 55 6.5 NNW 9 15 5 8 1008.7 1008.5 0.0
05/06:00pm 30.7 32.8 20.9 56 6.6 NNW 11 20 6 11 1008.2 1008.0 0.0
05/05:30pm 31.5 32.5 19.5 49 7.9 N 13 17 7 9 1007.6 1007.4 0.0
05/05:00pm 32.3 33.1 18.1 42 9.2 N 11 17 6 9 1007.4 1007.2 0.0
05/04:30pm 32.7 32.8 16.5 37 10.2 N 11 17 6 9 1007.4 1007.2 0.0
05/04:00pm 32.8 32.6 16.6 38 10.3 N 13 20 7 11 1007.2 1007.0 0.0
05/03:30pm 33.1 32.1 16.5 37 10.5 N 17 24 9 13 1006.8 1006.6 0.0
05/03:00pm 33.5 33.1 17.2 37 10.4 N 15 20 8 11 1006.7 1006.5 0.0
05/02:30pm 33.5 32.2 15.9 34 11.1 NNW 17 26 9 14 1006.8 1006.6 0.0
05/02:00pm 33.9 33.6 19.2 42 9.7 NNW 19 28 10 15 1007.1 1006.9 0.0
05/01:30pm 34.5 33.4 16.4 34 11.5 NNW 17 26 9 14 1007.4 1007.2 0.0
05/01:00pm 34.5 33.6 16.8 34 11.3 NNW 17 26 9 14 1007.8 1007.6 0.0
05/12:30pm 34.2 33.0 16.1 34 11.4 NNW 17 24 9 13 1008.1 1007.9 0.0
05/12:00pm 33.9 33.7 17.6 38 10.5 NNW 15 24 8 13 1008.6 1008.4 0.0
05/11:30am 34.0 34.7 20.4 45 9.1 NNW 17 22 9 12 1009.0 1008.8 0.0
05/11:00am 33.7 32.6 17.4 37 10.5 N 19 26 10 14 1009.2 1009.0 0.0
05/10:30am 33.2 34.3 19.7 45 8.9 NNW 13 20 7 11 1009.3 1009.1 0.0
05/10:00am 33.1 32.7 18.1 41 9.7 NNW 17 24 9 13 1009.7 1009.5 0.0
05/09:30am 33.2 34.8 20.7 47 8.4 NNW 13 19 7 10 1009.8 1009.6 0.0
05/09:00am 33.0 35.3 22.1 52 7.4 NNW 13 20 7 11 1009.9 1009.7 7.8
05/08:30am 32.7 37.7 24.5 62 5.8 N 6 9 3 5 1009.8 1009.6 7.8
05/08:00am 31.4 35.5 23.0 61 5.8 N 6 9 3 5 1010.1 1009.9 7.8
05/07:30am 31.1 35.8 24.0 66 4.9 S 6 7 3 4 1010.1 1009.9 7.8
05/07:00am 30.0 34.8 24.2 71 4.0 S 6 9 3 5 1009.9 1009.7 7.8
05/06:30am 29.2 35.3 24.5 76 3.3 CALM 0 7 0 4 1009.9 1009.7 7.8
05/06:00am 27.3 33.6 24.7 86 1.8 CALM 0 0 0 0 1009.6 1009.4 7.8
05/05:30am 26.6 32.8 24.6 89 1.4 CALM 0 0 0 0 1009.4 1009.2 7.8
05/05:00am 26.3 32.3 24.3 89 1.4 CALM 0 0 0 0 1009.2 1009.0 7.8
05/04:30am 26.1 31.9 24.0 88 1.4 CALM 0 0 0 0 1008.8 1008.6 7.8
05/04:00am 26.2 32.1 24.1 88 1.4 CALM 0 0 0 0 1008.3 1008.1 7.8
05/03:30am 26.3 32.3 24.2 88 1.4 CALM 0 0 0 0 1008.3 1008.1 7.8
05/03:00am 26.4 32.4 24.2 88 1.5 CALM 0 0 0 0 1008.4 1008.2 7.8
05/02:30am 26.4 31.9 24.1 87 1.6 S 2 7 1 4 1008.2 1008.0 7.8
05/02:00am 26.4 32.4 24.2 88 1.5 CALM 0 0 0 0 1008.2 1008.0 7.8
05/01:30am 26.4 32.4 24.2 88 1.5 CALM 0 0 0 0 1008.3 1008.1 7.8
05/01:00am 26.2 32.0 23.9 87 1.6 CALM 0 0 0 0 1008.2 1008.0 7.8
05/12:30am 26.5 32.3 24.0 86 1.7 CALM 0 0 0 0 1008.4 1008.2 7.8
05/12:00am 26.4 32.3 24.1 87 1.6 CALM 0 0 0 0 1008.5 1008.3 7.8
 
Date/Time
WST
Temp
°C
App
Temp
°C
Dew
Point
°C
Rel
Hum
%
Delta-T
°C
Wind Press
QNH
hPa
Press
MSL
hPa
Rain since
9am
mm
Dir  Spd
km/h
Gust
km/h
Spd
kts
Gust
kts
04/11:30pm 26.3 31.5 23.6 85 1.8 ENE 2 7 1 4 1008.7 1008.5 7.8
04/11:00pm 26.6 32.3 23.7 84 2.0 CALM 0 0 0 0 1009.0 1008.8 7.8
04/10:30pm 26.8 32.2 23.3 81 2.4 CALM 0 0 0 0 1009.4 1009.2 7.8
04/10:00pm 27.2 31.9 23.4 80 2.6 ENE 4 6 2 3 1009.7 1009.5 7.8
04/09:30pm 27.3 32.7 23.3 79 2.7 CALM 0 0 0 0 1009.6 1009.4 7.8
04/09:00pm 28.4 32.3 22.6 71 3.9 NNE 6 7 3 4 1009.6 1009.4 7.8
04/08:30pm 28.6 32.4 22.8 71 4.0 NNE 7 9 4 5 1009.7 1009.5 7.8
04/08:00pm 28.8 32.6 22.8 70 4.1 NNE 7 11 4 6 1009.6 1009.4 7.8
04/07:30pm 29.3 33.0 22.5 67 4.6 NNE 7 9 4 5 1009.6 1009.4 7.8
04/07:00pm 29.6 32.9 22.6 66 4.8 NNE 9 13 5 7 1009.3 1009.1 7.8
04/06:30pm 30.0 33.5 22.2 63 5.3 NNE 7 11 4 6 1008.7 1008.5 7.8
04/06:00pm 30.5 33.3 21.6 59 6.0 N 9 17 5 9 1008.3 1008.1 7.8
04/05:30pm 31.2 33.0 21.1 55 6.8 NNE 13 20 7 11 1007.9 1007.7 7.8
04/05:00pm 31.3 34.0 22.9 61 5.8 N 13 19 7 10 1007.7 1007.5 7.8
04/04:30pm 31.4 33.9 23.2 61 5.7 N 15 22 8 12 1007.1 1006.9 7.8
04/04:00pm 31.7 34.0 23.5 62 5.7 NNW 17 24 9 13 1006.6 1006.4 7.8
04/03:30pm 31.7 33.6 23.5 62 5.7 NNW 19 26 10 14 1006.9 1006.7 7.8
04/03:00pm 32.0 34.0 23.0 59 6.2 N 17 24 9 13 1007.0 1006.8 7.8
04/02:30pm 32.2 35.6 24.0 62 5.7 NNW 13 20 7 11 1006.9 1006.7 7.8
04/02:00pm 29.2 35.5 24.7 77 3.2 CALM 0 0 0 0 1007.5 1007.3 7.8
04/01:30pm 26.4 30.8 23.5 84 2.0 E 6 7 3 4 1007.9 1007.7 7.8
04/01:00pm 24.8 28.9 22.3 86 1.7 WNW 4 11 2 6 1008.4 1008.2 7.6
04/12:30pm 24.5 23.6 19.8 75 3.0 ENE 24 41 13 22 1009.1 1008.9 4.0
04/12:17pm 29.0 28.7 20.4 59 5.7 NNE 22 41 12 22 1008.7 1008.5 0.0
04/12:00pm 34.1 34.6 20.8 45 9.0 NNW 19 26 10 14 1008.0 1007.8 0.0
04/11:30am 34.4 36.0 21.4 46 8.8 NNW 15 22 8 12 1008.3 1008.1 0.0
04/11:00am 34.7 36.7 19.9 42 9.9 ENE 9 22 5 12 1008.7 1008.5 0.0
04/10:30am 34.4 38.1 21.4 46 8.8 NW 4 9 2 5 1008.9 1008.7 0.0
04/10:00am 33.7 36.3 20.1 44 9.1 ESE 6 9 3 5 1009.4 1009.2 0.0
04/09:30am 33.1 36.5 21.6 51 7.8 SSE 6 9 3 5 1009.6 1009.4 0.0
04/09:00am 32.8 35.5 20.7 49 8.1 E 7 13 4 7 1009.9 1009.7 0.4
04/08:30am 32.0 35.3 21.8 54 6.9 SE 7 13 4 7 1010.0 1009.8 0.4
04/08:00am 31.4 35.5 23.0 61 5.8 E 6 11 3 6 1010.0 1009.8 0.4
04/07:30am 31.1 35.2 23.0 62 5.6 SSE 6 7 3 4 1009.8 1009.6 0.2
04/07:00am 29.7 34.1 23.4 69 4.3 SSE 6 9 3 5 1010.0 1009.8 0.2
04/06:30am 28.1 32.8 23.9 78 2.9 ESE 6 7 3 4 1010.1 1009.9 0.2
04/06:00am 26.8 32.7 24.1 85 1.9 CALM 0 0 0 0 1009.9 1009.7 0.2
04/05:30am 26.3 32.1 24.0 87 1.6 CALM 0 0 0 0 1009.7 1009.5 0.2
04/05:00am 25.6 31.0 23.3 87 1.6 CALM 0 0 0 0 1009.3 1009.1 0.2
04/04:30am 26.0 31.6 23.5 86 1.7 CALM 0 6 0 3 1009.0 1008.8 0.2
04/04:00am 25.7 31.3 23.6 88 1.4 CALM 0 0 0 0 1008.9 1008.7 0.2
04/03:30am 25.8 30.7 23.7 88 1.4 S 4 7 2 4 1008.7 1008.5 0.2
04/03:00am 25.8 31.5 23.7 88 1.4 CALM 0 0 0 0 1008.7 1008.5 0.2
04/02:30am 25.8 31.5 23.7 88 1.4 CALM 0 0 0 0 1008.6 1008.4 0.2
04/02:00am 25.9 31.5 23.6 87 1.6 CALM 0 0 0 0 1008.6 1008.4 0.2
04/01:30am 26.0 31.8 23.9 88 1.4 CALM 0 0 0 0 1008.9 1008.7 0.2
04/01:00am 26.0 31.2 23.5 86 1.7 SSW 2 7 1 4 1009.0 1008.8 0.2
04/12:30am 26.2 31.9 23.7 86 1.7 CALM 0 0 0 0 1009.1 1008.9 0.2
04/12:00am 26.2 31.4 23.5 85 1.8 SSE 2 6 1 3 1009.3 1009.1 0.2
 
Date/Time
WST
Temp
°C
App
Temp
°C
Dew
Point
°C
Rel
Hum
%
Delta-T
°C
Wind Press
QNH
hPa
Press
MSL
hPa
Rain since
9am
mm
Dir  Spd
km/h
Gust
km/h
Spd
kts
Gust
kts
03/11:30pm 26.5 31.0 23.6 84 2.0 E 6 7 3 4 1009.5 1009.3 0.2
03/11:00pm 26.4 30.8 23.5 84 2.0 SSE 6 7 3 4 1009.9 1009.7 0.2
03/10:30pm 26.6 32.0 23.3 82 2.3 CALM 0 0 0 0 1010.3 1010.1 0.2
03/10:00pm 27.1 32.5 23.3 80 2.6 CALM 0 0 0 0 1010.5 1010.3 0.2

Other Formats:

Comma delimited format used in spreadsheet applications
http://www.bom.gov.au/fwo/IDW60801/IDW60801.94100.axf

JavaScript Object Notation format (JSON) in row-major order
http://www.bom.gov.au/fwo/IDW60801/IDW60801.94100.json